Axion Estin — SW5988 — position and weather

sailwx.info

Track history (hours):
 
Tides and Currents Weather Stations Pressure Air Temp Water Temp Dewpoint Dewpoint Depression Visibility Wind Speed Wind Dir Waves Ship Positions

Axion Estin

Last reported at 2017-Dec-11 11:23 UTC. Time now 2017-Dec-13 22:50 UTC.
Position N 40°17' E 024°09'.

Length 48 m; draft 1.6 m.

Type: Ship. MMSI: 237025200.

Date/timePositionNaut miles runAvg speedWind from/ knotsBaromVisibWave heightAir tempDewpointWater temp
2017-Dec-11 11:23N 40°17' E 024°09'3 5.3
2017-Dec-11 10:54N 40°15' E 024°11'1 1.4
2017-Dec-11 09:52N 40°14' E 024°12'2 5.3
2017-Dec-11 09:24N 40°16' E 024°10'3 4.5
2017-Dec-11 08:50N 40°17' E 024°08'2 6.7
2017-Dec-11 08:30N 40°17' E 024°05'3 0.1
2017-Dec-09 11:37N 40°18' E 024°01'1 8.3
2017-Dec-09 11:29N 40°17' E 024°02'4 8.3
2017-Dec-09 11:00N 40°15' E 024°06'4 8.6
2017-Dec-09 10:30N 40°13' E 024°11'1 1.8
2017-Dec-09 09:48N 40°14' E 024°13'2 6.1
2017-Dec-09 09:29N 40°15' E 024°11'2 5.0
2017-Dec-09 09:00N 40°17' E 024°09'2 4.5
2017-Dec-09 08:28N 40°17' E 024°06'4 8.5
2017-Dec-09 08:00N 40°18' E 024°01'2 0.1
2017-Dec-08 12:23N 40°17' E 024°03'3 8.6
2017-Dec-08 12:00N 40°17' E 024°07'2 3.5
2017-Dec-08 11:28N 40°17' E 024°09'2 4.4
2017-Dec-08 11:00N 40°15' E 024°11'2 2.1
2017-Dec-08 09:57N 40°13' E 024°13'2 5.1
2017-Dec-08 09:29N 40°15' E 024°11'2 4.3
2017-Dec-08 08:59N 40°17' E 024°09'3 6.2
2017-Dec-08 08:30N 40°17' E 024°05'2 0.1
2017-Dec-07 11:50N 40°17' E 024°03'3 9.0
2017-Dec-07 11:29N 40°17' E 024°07'3 4.6
2017-Dec-07 10:47N 40°16' E 024°10'2 6.0
2017-Dec-07 10:30N 40°14' E 024°12'1 1.0
2017-Dec-07 09:47N 40°14' E 024°12'2 5.8
2017-Dec-07 09:30N 40°15' E 024°11'3 4.9
2017-Dec-07 08:51N 40°17' E 024°08'3 7.2
2017-Dec-07 08:25N 40°17' E 024°04'  
2017-Dec-04 09:00N 40°17' E 024°09'  
Track history (hours):
 
Tides and Currents Weather Stations Pressure Air Temp Water Temp Dewpoint Dewpoint Depression Visibility Wind Speed Wind Dir Waves Ship Positions

Axion Estin

Last reported at 2017-Dec-11 11:23 UTC. Time now 2017-Dec-13 22:50 UTC.
Position N 40°17' E 024°09'.

Length 48 m; draft 1.6 m.

Type: Ship. MMSI: 237025200.

Date/timePositionNaut miles runAvg speedWind from/ knotsBaromVisibWave heightAir tempDewpointWater temp
2017-Dec-11 11:23N 40°17' E 024°09'3 5.3
2017-Dec-11 10:54N 40°15' E 024°11'1 1.4
2017-Dec-11 09:52N 40°14' E 024°12'2 5.3
2017-Dec-11 09:24N 40°16' E 024°10'3 4.5
2017-Dec-11 08:50N 40°17' E 024°08'2 6.7
2017-Dec-11 08:30N 40°17' E 024°05'3 0.1
2017-Dec-09 11:37N 40°18' E 024°01'1 8.3
2017-Dec-09 11:29N 40°17' E 024°02'4 8.3
2017-Dec-09 11:00N 40°15' E 024°06'4 8.6
2017-Dec-09 10:30N 40°13' E 024°11'1 1.8
2017-Dec-09 09:48N 40°14' E 024°13'2 6.1
2017-Dec-09 09:29N 40°15' E 024°11'2 5.0
2017-Dec-09 09:00N 40°17' E 024°09'2 4.5
2017-Dec-09 08:28N 40°17' E 024°06'4 8.5
2017-Dec-09 08:00N 40°18' E 024°01'2 0.1
2017-Dec-08 12:23N 40°17' E 024°03'3 8.6
2017-Dec-08 12:00N 40°17' E 024°07'2 3.5
2017-Dec-08 11:28N 40°17' E 024°09'2 4.4
2017-Dec-08 11:00N 40°15' E 024°11'2 2.1
2017-Dec-08 09:57N 40°13' E 024°13'2 5.1
2017-Dec-08 09:29N 40°15' E 024°11'2 4.3
2017-Dec-08 08:59N 40°17' E 024°09'3 6.2
2017-Dec-08 08:30N 40°17' E 024°05'2 0.1
2017-Dec-07 11:50N 40°17' E 024°03'3 9.0
2017-Dec-07 11:29N 40°17' E 024°07'3 4.6
2017-Dec-07 10:47N 40°16' E 024°10'2 6.0
2017-Dec-07 10:30N 40°14' E 024°12'1 1.0
2017-Dec-07 09:47N 40°14' E 024°12'2 5.8
2017-Dec-07 09:30N 40°15' E 024°11'3 4.9
2017-Dec-07 08:51N 40°17' E 024°08'3 7.2
2017-Dec-07 08:25N 40°17' E 024°04'  
2017-Dec-04 09:00N 40°17' E 024°09'  

Dump ship's entire track history